sensor_id;sensor_type;location;lat;lon;timestamp;P1;durP1;ratioP1;P2;durP2;ratioP2
69621;SDS011;56841;55.964;37.674;2022-08-16T00:01:30;16.83;;;7.40;;
69621;SDS011;56841;55.964;37.674;2022-08-16T00:03:56;13.23;;;7.00;;
69621;SDS011;56841;55.964;37.674;2022-08-16T00:06:24;14.90;;;7.15;;
69621;SDS011;56841;55.964;37.674;2022-08-16T00:08:50;14.45;;;7.43;;
69621;SDS011;56841;55.964;37.674;2022-08-16T00:11:16;15.57;;;7.63;;
69621;SDS011;56841;55.964;37.674;2022-08-16T00:13:43;13.93;;;6.93;;
69621;SDS011;56841;55.964;37.674;2022-08-16T00:16:10;11.88;;;6.90;;
69621;SDS011;56841;55.964;37.674;2022-08-16T00:18:35;14.63;;;7.65;;
69621;SDS011;56841;55.964;37.674;2022-08-16T00:21:01;15.45;;;7.95;;
69621;SDS011;56841;55.964;37.674;2022-08-16T00:23:29;15.38;;;8.13;;
69621;SDS011;56841;55.964;37.674;2022-08-16T00:25:56;12.73;;;7.93;;
69621;SDS011;56841;55.964;37.674;2022-08-16T00:28:21;14.95;;;8.25;;
69621;SDS011;56841;55.964;37.674;2022-08-16T00:30:48;15.27;;;7.95;;
69621;SDS011;56841;55.964;37.674;2022-08-16T00:33:14;15.68;;;7.72;;
69621;SDS011;56841;55.964;37.674;2022-08-16T00:35:40;11.60;;;8.00;;
69621;SDS011;56841;55.964;37.674;2022-08-16T00:38:06;13.07;;;7.45;;
69621;SDS011;56841;55.964;37.674;2022-08-16T00:40:36;13.82;;;7.88;;
69621;SDS011;56841;55.964;37.674;2022-08-16T00:43:07;14.23;;;8.18;;
69621;SDS011;56841;55.964;37.674;2022-08-16T00:48:17;13.77;;;7.50;;
69621;SDS011;56841;55.964;37.674;2022-08-16T00:50:43;10.52;;;7.03;;
69621;SDS011;56841;55.964;37.674;2022-08-16T00:53:10;13.95;;;7.70;;
69621;SDS011;56841;55.964;37.674;2022-08-16T00:55:38;11.75;;;7.07;;
69621;SDS011;56841;55.964;37.674;2022-08-16T00:58:08;12.63;;;7.45;;
69621;SDS011;56841;55.964;37.674;2022-08-16T01:00:35;11.15;;;6.95;;
69621;SDS011;56841;55.964;37.674;2022-08-16T01:03:02;12.15;;;6.55;;
69621;SDS011;56841;55.964;37.674;2022-08-16T01:05:32;12.45;;;6.75;;
69621;SDS011;56841;55.964;37.674;2022-08-16T01:08:00;14.55;;;6.90;;
69621;SDS011;56841;55.964;37.674;2022-08-16T01:10:28;11.57;;;6.47;;
69621;SDS011;56841;55.964;37.674;2022-08-16T01:12:56;15.00;;;6.75;;
69621;SDS011;56841;55.964;37.674;2022-08-16T01:15:24;13.50;;;6.68;;
69621;SDS011;56841;55.964;37.674;2022-08-16T01:17:52;13.85;;;6.75;;
69621;SDS011;56841;55.964;37.674;2022-08-16T01:20:19;11.20;;;6.55;;
69621;SDS011;56841;55.964;37.674;2022-08-16T01:22:51;10.73;;;6.32;;
69621;SDS011;56841;55.964;37.674;2022-08-16T01:25:26;11.50;;;6.40;;
69621;SDS011;56841;55.964;37.674;2022-08-16T01:27:56;11.23;;;6.53;;
69621;SDS011;56841;55.964;37.674;2022-08-16T01:30:30;12.55;;;6.75;;
69621;SDS011;56841;55.964;37.674;2022-08-16T01:33:01;10.70;;;6.40;;
69621;SDS011;56841;55.964;37.674;2022-08-16T01:40:50;12.10;;;6.90;;
69621;SDS011;56841;55.964;37.674;2022-08-16T01:43:20;10.52;;;6.72;;
69621;SDS011;56841;55.964;37.674;2022-08-16T01:45:47;11.23;;;6.40;;
69621;SDS011;56841;55.964;37.674;2022-08-16T01:48:18;12.27;;;6.45;;
69621;SDS011;56841;55.964;37.674;2022-08-16T01:50:44;11.43;;;6.25;;
69621;SDS011;56841;55.964;37.674;2022-08-16T01:53:11;11.63;;;6.28;;
69621;SDS011;56841;55.964;37.674;2022-08-16T01:55:57;11.30;;;6.13;;
69621;SDS011;56841;55.964;37.674;2022-08-16T01:58:22;12.25;;;6.15;;
69621;SDS011;56841;55.964;37.674;2022-08-16T02:00:49;9.68;;;5.88;;
69621;SDS011;56841;55.964;37.674;2022-08-16T02:03:15;14.57;;;6.22;;
69621;SDS011;56841;55.964;37.674;2022-08-16T02:05:42;11.35;;;6.50;;
69621;SDS011;56841;55.964;37.674;2022-08-16T02:08:07;11.93;;;6.35;;
69621;SDS011;56841;55.964;37.674;2022-08-16T02:10:34;11.13;;;6.03;;
69621;SDS011;56841;55.964;37.674;2022-08-16T02:13:04;11.60;;;5.88;;
69621;SDS011;56841;55.964;37.674;2022-08-16T02:15:33;13.15;;;6.03;;
69621;SDS011;56841;55.964;37.674;2022-08-16T02:18:00;12.77;;;6.00;;
69621;SDS011;56841;55.964;37.674;2022-08-16T02:20:29;15.73;;;5.97;;
69621;SDS011;56841;55.964;37.674;2022-08-16T02:22:58;12.18;;;6.22;;
69621;SDS011;56841;55.964;37.674;2022-08-16T02:25:25;14.43;;;6.30;;
69621;SDS011;56841;55.964;37.674;2022-08-16T02:27:52;11.63;;;6.00;;
69621;SDS011;56841;55.964;37.674;2022-08-16T02:30:27;9.95;;;5.47;;
69621;SDS011;56841;55.964;37.674;2022-08-16T02:32:55;10.55;;;5.50;;
69621;SDS011;56841;55.964;37.674;2022-08-16T02:35:23;11.73;;;6.10;;
69621;SDS011;56841;55.964;37.674;2022-08-16T02:37:50;11.68;;;6.15;;
69621;SDS011;56841;55.964;37.674;2022-08-16T02:40:17;13.40;;;5.95;;
69621;SDS011;56841;55.964;37.674;2022-08-16T02:42:45;12.40;;;6.22;;
69621;SDS011;56841;55.964;37.674;2022-08-16T02:45:12;10.23;;;5.93;;
69621;SDS011;56841;55.964;37.674;2022-08-16T02:47:39;13.02;;;6.32;;
69621;SDS011;56841;55.964;37.674;2022-08-16T02:50:05;14.57;;;6.18;;
69621;SDS011;56841;55.964;37.674;2022-08-16T02:52:31;17.92;;;6.10;;
69621;SDS011;56841;55.964;37.674;2022-08-16T02:55:03;16.25;;;6.28;;
69621;SDS011;56841;55.964;37.674;2022-08-16T02:57:30;14.43;;;5.93;;
69621;SDS011;56841;55.964;37.674;2022-08-16T02:59:56;10.43;;;5.97;;
69621;SDS011;56841;55.964;37.674;2022-08-16T03:02:22;10.20;;;6.18;;
69621;SDS011;56841;55.964;37.674;2022-08-16T03:04:49;12.70;;;6.20;;
69621;SDS011;56841;55.964;37.674;2022-08-16T03:07:17;10.57;;;6.10;;
69621;SDS011;56841;55.964;37.674;2022-08-16T03:09:47;12.82;;;6.00;;
69621;SDS011;56841;55.964;37.674;2022-08-16T03:12:17;11.48;;;5.85;;
69621;SDS011;56841;55.964;37.674;2022-08-16T03:14:46;11.25;;;6.20;;
69621;SDS011;56841;55.964;37.674;2022-08-16T03:17:13;12.43;;;6.10;;
69621;SDS011;56841;55.964;37.674;2022-08-16T03:19:40;14.75;;;6.85;;
69621;SDS011;56841;55.964;37.674;2022-08-16T03:22:06;15.45;;;6.88;;
69621;SDS011;56841;55.964;37.674;2022-08-16T03:24:34;12.50;;;6.18;;
69621;SDS011;56841;55.964;37.674;2022-08-16T03:27:00;16.60;;;6.57;;
69621;SDS011;56841;55.964;37.674;2022-08-16T03:29:28;12.25;;;6.35;;
69621;SDS011;56841;55.964;37.674;2022-08-16T03:31:58;14.50;;;6.10;;
69621;SDS011;56841;55.964;37.674;2022-08-16T03:34:26;16.17;;;6.32;;
69621;SDS011;56841;55.964;37.674;2022-08-16T03:36:52;10.18;;;6.20;;
69621;SDS011;56841;55.964;37.674;2022-08-16T03:39:18;15.02;;;6.18;;
69621;SDS011;56841;55.964;37.674;2022-08-16T03:41:44;13.27;;;6.40;;
69621;SDS011;56841;55.964;37.674;2022-08-16T03:44:10;15.23;;;6.32;;
69621;SDS011;56841;55.964;37.674;2022-08-16T03:46:36;18.65;;;6.70;;
69621;SDS011;56841;55.964;37.674;2022-08-16T03:49:03;17.40;;;6.28;;
69621;SDS011;56841;55.964;37.674;2022-08-16T03:51:29;13.73;;;6.20;;
69621;SDS011;56841;55.964;37.674;2022-08-16T03:54:01;13.45;;;6.20;;
69621;SDS011;56841;55.964;37.674;2022-08-16T03:56:30;12.40;;;6.28;;
69621;SDS011;56841;55.964;37.674;2022-08-16T03:58:57;11.60;;;6.32;;
69621;SDS011;56841;55.964;37.674;2022-08-16T04:01:27;12.45;;;6.28;;
69621;SDS011;56841;55.964;37.674;2022-08-16T04:03:53;12.43;;;6.60;;
69621;SDS011;56841;55.964;37.674;2022-08-16T04:06:19;10.32;;;6.07;;
69621;SDS011;56841;55.964;37.674;2022-08-16T04:08:47;11.32;;;6.47;;
69621;SDS011;56841;55.964;37.674;2022-08-16T04:11:13;12.73;;;6.72;;
69621;SDS011;56841;55.964;37.674;2022-08-16T04:13:39;17.05;;;6.65;;
69621;SDS011;56841;55.964;37.674;2022-08-16T04:16:05;12.38;;;6.07;;
69621;SDS011;56841;55.964;37.674;2022-08-16T04:18:34;12.98;;;6.68;;
69621;SDS011;56841;55.964;37.674;2022-08-16T04:21:03;12.65;;;6.47;;
69621;SDS011;56841;55.964;37.674;2022-08-16T04:23:30;14.18;;;6.55;;
69621;SDS011;56841;55.964;37.674;2022-08-16T04:25:56;10.20;;;6.40;;
69621;SDS011;56841;55.964;37.674;2022-08-16T04:28:22;13.18;;;6.28;;
69621;SDS011;56841;55.964;37.674;2022-08-16T04:30:48;13.07;;;6.05;;
69621;SDS011;56841;55.964;37.674;2022-08-16T04:33:14;10.48;;;6.30;;
69621;SDS011;56841;55.964;37.674;2022-08-16T04:35:41;16.35;;;6.38;;
69621;SDS011;56841;55.964;37.674;2022-08-16T04:38:07;14.77;;;6.40;;
69621;SDS011;56841;55.964;37.674;2022-08-16T04:40:42;11.52;;;6.05;;
69621;SDS011;56841;55.964;37.674;2022-08-16T04:43:08;11.75;;;5.93;;
69621;SDS011;56841;55.964;37.674;2022-08-16T04:45:34;12.05;;;5.90;;
69621;SDS011;56841;55.964;37.674;2022-08-16T04:48:01;13.48;;;6.07;;
69621;SDS011;56841;55.964;37.674;2022-08-16T04:50:34;10.93;;;5.68;;
69621;SDS011;56841;55.964;37.674;2022-08-16T04:53:11;15.93;;;6.47;;
69621;SDS011;56841;55.964;37.674;2022-08-16T04:55:41;12.93;;;5.68;;
69621;SDS011;56841;55.964;37.674;2022-08-16T04:58:07;11.80;;;6.38;;
69621;SDS011;56841;55.964;37.674;2022-08-16T05:00:33;11.98;;;5.53;;
69621;SDS011;56841;55.964;37.674;2022-08-16T05:03:13;13.38;;;5.88;;
69621;SDS011;56841;55.964;37.674;2022-08-16T05:05:49;13.10;;;6.22;;
69621;SDS011;56841;55.964;37.674;2022-08-16T05:08:19;12.27;;;6.00;;
69621;SDS011;56841;55.964;37.674;2022-08-16T05:10:51;12.23;;;5.47;;
69621;SDS011;56841;55.964;37.674;2022-08-16T05:13:18;13.30;;;6.43;;
69621;SDS011;56841;55.964;37.674;2022-08-16T05:15:45;14.18;;;5.90;;
69621;SDS011;56841;55.964;37.674;2022-08-16T05:18:15;15.45;;;5.63;;
69621;SDS011;56841;55.964;37.674;2022-08-16T05:20:48;12.05;;;5.10;;
69621;SDS011;56841;55.964;37.674;2022-08-16T05:23:14;13.20;;;5.13;;
69621;SDS011;56841;55.964;37.674;2022-08-16T05:25:42;9.57;;;5.40;;
69621;SDS011;56841;55.964;37.674;2022-08-16T05:28:08;8.95;;;4.82;;
69621;SDS011;56841;55.964;37.674;2022-08-16T05:30:37;9.55;;;4.57;;
69621;SDS011;56841;55.964;37.674;2022-08-16T05:33:10;8.85;;;4.47;;
69621;SDS011;56841;55.964;37.674;2022-08-16T05:35:36;10.73;;;4.88;;
69621;SDS011;56841;55.964;37.674;2022-08-16T05:38:09;6.70;;;4.20;;
69621;SDS011;56841;55.964;37.674;2022-08-16T05:40:35;11.77;;;4.53;;
69621;SDS011;56841;55.964;37.674;2022-08-16T05:43:01;10.30;;;4.85;;
69621;SDS011;56841;55.964;37.674;2022-08-16T05:45:27;11.07;;;4.50;;
69621;SDS011;56841;55.964;37.674;2022-08-16T05:47:57;7.78;;;4.55;;
69621;SDS011;56841;55.964;37.674;2022-08-16T05:50:23;8.70;;;4.47;;
69621;SDS011;56841;55.964;37.674;2022-08-16T05:52:51;9.18;;;4.78;;
69621;SDS011;56841;55.964;37.674;2022-08-16T05:55:18;8.55;;;4.47;;
69621;SDS011;56841;55.964;37.674;2022-08-16T05:57:44;8.68;;;4.40;;
69621;SDS011;56841;55.964;37.674;2022-08-16T06:00:11;11.35;;;4.72;;
69621;SDS011;56841;55.964;37.674;2022-08-16T06:02:39;12.00;;;4.63;;
69621;SDS011;56841;55.964;37.674;2022-08-16T06:05:26;11.00;;;4.40;;
69621;SDS011;56841;55.964;37.674;2022-08-16T06:07:51;7.47;;;4.20;;
69621;SDS011;56841;55.964;37.674;2022-08-16T06:10:26;8.70;;;4.35;;
69621;SDS011;56841;55.964;37.674;2022-08-16T06:12:52;7.97;;;4.82;;
69621;SDS011;56841;55.964;37.674;2022-08-16T06:15:18;11.30;;;4.28;;
69621;SDS011;56841;55.964;37.674;2022-08-16T06:17:45;6.97;;;3.95;;
69621;SDS011;56841;55.964;37.674;2022-08-16T06:22:44;9.00;;;4.15;;
69621;SDS011;56841;55.964;37.674;2022-08-16T06:25:11;10.32;;;4.38;;
69621;SDS011;56841;55.964;37.674;2022-08-16T06:27:38;11.63;;;4.65;;
69621;SDS011;56841;55.964;37.674;2022-08-16T06:30:08;10.00;;;4.38;;
69621;SDS011;56841;55.964;37.674;2022-08-16T06:32:35;6.40;;;4.20;;
69621;SDS011;56841;55.964;37.674;2022-08-16T06:35:02;12.07;;;4.10;;
69621;SDS011;56841;55.964;37.674;2022-08-16T06:39:58;9.82;;;4.03;;
69621;SDS011;56841;55.964;37.674;2022-08-16T06:42:32;11.13;;;3.75;;
69621;SDS011;56841;55.964;37.674;2022-08-16T06:45:22;11.80;;;4.32;;
69621;SDS011;56841;55.964;37.674;2022-08-16T06:47:55;9.43;;;4.05;;
69621;SDS011;56841;55.964;37.674;2022-08-16T06:50:23;9.05;;;3.90;;
69621;SDS011;56841;55.964;37.674;2022-08-16T06:52:50;15.95;;;4.10;;
69621;SDS011;56841;55.964;37.674;2022-08-16T06:55:15;10.50;;;4.22;;
69621;SDS011;56841;55.964;37.674;2022-08-16T06:57:48;7.25;;;3.55;;
69621;SDS011;56841;55.964;37.674;2022-08-16T07:00:16;6.63;;;3.50;;
69621;SDS011;56841;55.964;37.674;2022-08-16T07:02:52;8.52;;;3.38;;
69621;SDS011;56841;55.964;37.674;2022-08-16T07:05:18;6.38;;;3.45;;
69621;SDS011;56841;55.964;37.674;2022-08-16T07:07:59;7.00;;;3.35;;
69621;SDS011;56841;55.964;37.674;2022-08-16T07:10:30;8.32;;;3.70;;
69621;SDS011;56841;55.964;37.674;2022-08-16T07:12:56;6.20;;;3.42;;
69621;SDS011;56841;55.964;37.674;2022-08-16T07:15:23;12.63;;;3.55;;
69621;SDS011;56841;55.964;37.674;2022-08-16T07:17:49;7.30;;;3.85;;
69621;SDS011;56841;55.964;37.674;2022-08-16T07:20:15;5.30;;;2.85;;
69621;SDS011;56841;55.964;37.674;2022-08-16T07:22:50;5.57;;;3.30;;
69621;SDS011;56841;55.964;37.674;2022-08-16T07:25:24;4.20;;;3.20;;
69621;SDS011;56841;55.964;37.674;2022-08-16T07:27:51;6.45;;;3.58;;
69621;SDS011;56841;55.964;37.674;2022-08-16T07:30:20;5.20;;;3.78;;
69621;SDS011;56841;55.964;37.674;2022-08-16T07:32:46;6.85;;;3.20;;
69621;SDS011;56841;55.964;37.674;2022-08-16T07:35:15;8.60;;;3.75;;
69621;SDS011;56841;55.964;37.674;2022-08-16T07:37:41;8.85;;;3.50;;
69621;SDS011;56841;55.964;37.674;2022-08-16T07:40:14;6.82;;;3.72;;
69621;SDS011;56841;55.964;37.674;2022-08-16T07:42:43;6.55;;;4.10;;
69621;SDS011;56841;55.964;37.674;2022-08-16T07:45:08;4.70;;;2.63;;
69621;SDS011;56841;55.964;37.674;2022-08-16T07:47:36;8.15;;;3.33;;
69621;SDS011;56841;55.964;37.674;2022-08-16T07:50:03;8.15;;;3.50;;
69621;SDS011;56841;55.964;37.674;2022-08-16T07:52:30;8.32;;;3.40;;
69621;SDS011;56841;55.964;37.674;2022-08-16T07:54:57;7.75;;;3.38;;
69621;SDS011;56841;55.964;37.674;2022-08-16T07:57:23;7.78;;;3.42;;
69621;SDS011;56841;55.964;37.674;2022-08-16T07:59:51;6.85;;;3.03;;
69621;SDS011;56841;55.964;37.674;2022-08-16T08:02:18;8.57;;;3.35;;
69621;SDS011;56841;55.964;37.674;2022-08-16T08:04:44;6.57;;;2.92;;
69621;SDS011;56841;55.964;37.674;2022-08-16T08:07:10;5.88;;;3.20;;
69621;SDS011;56841;55.964;37.674;2022-08-16T08:09:37;7.50;;;3.50;;
69621;SDS011;56841;55.964;37.674;2022-08-16T08:12:03;7.93;;;3.38;;
69621;SDS011;56841;55.964;37.674;2022-08-16T08:14:38;8.55;;;3.50;;
69621;SDS011;56841;55.964;37.674;2022-08-16T08:17:04;5.43;;;3.20;;
69621;SDS011;56841;55.964;37.674;2022-08-16T08:19:34;6.32;;;3.65;;
69621;SDS011;56841;55.964;37.674;2022-08-16T08:22:02;6.97;;;3.30;;
69621;SDS011;56841;55.964;37.674;2022-08-16T08:24:40;10.35;;;3.10;;
69621;SDS011;56841;55.964;37.674;2022-08-16T08:27:07;7.55;;;3.17;;
69621;SDS011;56841;55.964;37.674;2022-08-16T08:29:34;6.13;;;3.33;;
69621;SDS011;56841;55.964;37.674;2022-08-16T08:32:01;7.57;;;3.22;;
69621;SDS011;56841;55.964;37.674;2022-08-16T08:34:27;9.80;;;2.95;;
69621;SDS011;56841;55.964;37.674;2022-08-16T08:36:54;5.45;;;2.90;;
69621;SDS011;56841;55.964;37.674;2022-08-16T08:39:30;9.75;;;3.30;;
69621;SDS011;56841;55.964;37.674;2022-08-16T08:41:56;8.82;;;3.30;;
69621;SDS011;56841;55.964;37.674;2022-08-16T08:44:23;5.45;;;3.15;;
69621;SDS011;56841;55.964;37.674;2022-08-16T08:46:49;9.30;;;3.08;;
69621;SDS011;56841;55.964;37.674;2022-08-16T08:49:15;7.75;;;3.55;;
69621;SDS011;56841;55.964;37.674;2022-08-16T08:51:42;9.00;;;3.30;;
69621;SDS011;56841;55.964;37.674;2022-08-16T08:54:10;8.05;;;3.20;;
69621;SDS011;56841;55.964;37.674;2022-08-16T08:56:41;7.70;;;3.13;;
69621;SDS011;56841;55.964;37.674;2022-08-16T08:59:31;5.80;;;3.58;;
69621;SDS011;56841;55.964;37.674;2022-08-16T09:01:59;7.85;;;3.40;;
69621;SDS011;56841;55.964;37.674;2022-08-16T09:04:30;7.97;;;3.60;;
69621;SDS011;56841;55.964;37.674;2022-08-16T09:06:57;6.45;;;2.60;;
69621;SDS011;56841;55.964;37.674;2022-08-16T09:09:23;6.32;;;3.15;;
69621;SDS011;56841;55.964;37.674;2022-08-16T09:11:54;6.10;;;3.20;;
69621;SDS011;56841;55.964;37.674;2022-08-16T09:14:21;5.65;;;3.40;;
69621;SDS011;56841;55.964;37.674;2022-08-16T09:16:47;6.78;;;3.25;;
69621;SDS011;56841;55.964;37.674;2022-08-16T09:19:12;5.85;;;3.72;;
69621;SDS011;56841;55.964;37.674;2022-08-16T09:21:38;7.22;;;3.30;;
69621;SDS011;56841;55.964;37.674;2022-08-16T09:24:04;7.18;;;3.38;;
69621;SDS011;56841;55.964;37.674;2022-08-16T09:26:30;7.93;;;3.13;;
69621;SDS011;56841;55.964;37.674;2022-08-16T09:28:57;5.80;;;3.20;;
69621;SDS011;56841;55.964;37.674;2022-08-16T09:31:24;10.52;;;3.38;;
69621;SDS011;56841;55.964;37.674;2022-08-16T09:33:50;5.10;;;3.50;;
69621;SDS011;56841;55.964;37.674;2022-08-16T09:36:17;6.57;;;3.10;;
69621;SDS011;56841;55.964;37.674;2022-08-16T09:38:44;5.35;;;3.80;;
69621;SDS011;56841;55.964;37.674;2022-08-16T09:41:10;6.63;;;3.40;;
69621;SDS011;56841;55.964;37.674;2022-08-16T09:43:37;5.15;;;3.08;;
69621;SDS011;56841;55.964;37.674;2022-08-16T09:46:04;4.13;;;3.30;;
69621;SDS011;56841;55.964;37.674;2022-08-16T09:48:33;4.70;;;3.40;;
69621;SDS011;56841;55.964;37.674;2022-08-16T09:51:00;7.05;;;3.40;;
69621;SDS011;56841;55.964;37.674;2022-08-16T09:53:26;5.45;;;3.38;;
69621;SDS011;56841;55.964;37.674;2022-08-16T09:55:55;9.93;;;4.07;;
69621;SDS011;56841;55.964;37.674;2022-08-16T09:58:21;5.38;;;3.30;;
69621;SDS011;56841;55.964;37.674;2022-08-16T10:00:50;5.65;;;3.42;;
69621;SDS011;56841;55.964;37.674;2022-08-16T10:03:17;6.30;;;3.75;;
69621;SDS011;56841;55.964;37.674;2022-08-16T10:05:43;6.47;;;2.97;;
69621;SDS011;56841;55.964;37.674;2022-08-16T10:08:10;5.85;;;3.40;;
69621;SDS011;56841;55.964;37.674;2022-08-16T10:10:36;5.72;;;3.40;;
69621;SDS011;56841;55.964;37.674;2022-08-16T10:13:06;5.30;;;3.28;;
69621;SDS011;56841;55.964;37.674;2022-08-16T10:15:47;5.55;;;3.38;;
69621;SDS011;56841;55.964;37.674;2022-08-16T10:18:16;6.50;;;3.55;;
69621;SDS011;56841;55.964;37.674;2022-08-16T10:20:43;6.88;;;3.47;;
69621;SDS011;56841;55.964;37.674;2022-08-16T10:23:11;9.95;;;3.70;;
69621;SDS011;56841;55.964;37.674;2022-08-16T10:25:41;7.38;;;3.40;;
69621;SDS011;56841;55.964;37.674;2022-08-16T10:28:09;7.03;;;3.63;;
69621;SDS011;56841;55.964;37.674;2022-08-16T10:30:36;6.57;;;3.65;;
69621;SDS011;56841;55.964;37.674;2022-08-16T10:33:02;6.82;;;3.65;;
69621;SDS011;56841;55.964;37.674;2022-08-16T10:35:30;5.95;;;3.50;;
69621;SDS011;56841;55.964;37.674;2022-08-16T10:37:57;5.53;;;3.08;;
69621;SDS011;56841;55.964;37.674;2022-08-16T10:40:23;5.65;;;3.40;;
69621;SDS011;56841;55.964;37.674;2022-08-16T10:42:49;5.55;;;3.50;;
69621;SDS011;56841;55.964;37.674;2022-08-16T10:45:15;5.28;;;3.22;;
69621;SDS011;56841;55.964;37.674;2022-08-16T10:47:43;6.32;;;3.70;;
69621;SDS011;56841;55.964;37.674;2022-08-16T10:50:09;6.88;;;3.60;;
69621;SDS011;56841;55.964;37.674;2022-08-16T10:52:35;5.25;;;3.50;;
69621;SDS011;56841;55.964;37.674;2022-08-16T10:55:02;8.05;;;3.53;;
69621;SDS011;56841;55.964;37.674;2022-08-16T10:57:29;5.95;;;3.42;;
69621;SDS011;56841;55.964;37.674;2022-08-16T10:59:57;6.35;;;3.40;;
69621;SDS011;56841;55.964;37.674;2022-08-16T11:02:23;5.90;;;3.83;;
69621;SDS011;56841;55.964;37.674;2022-08-16T11:04:50;6.25;;;3.30;;
69621;SDS011;56841;55.964;37.674;2022-08-16T11:07:16;7.18;;;3.20;;
69621;SDS011;56841;55.964;37.674;2022-08-16T11:09:42;4.57;;;3.40;;
69621;SDS011;56841;55.964;37.674;2022-08-16T11:12:08;5.55;;;3.72;;
69621;SDS011;56841;55.964;37.674;2022-08-16T11:14:34;6.93;;;4.00;;
69621;SDS011;56841;55.964;37.674;2022-08-16T11:17:02;9.63;;;3.60;;
69621;SDS011;56841;55.964;37.674;2022-08-16T11:19:29;7.57;;;3.40;;
69621;SDS011;56841;55.964;37.674;2022-08-16T11:21:55;5.30;;;3.35;;
69621;SDS011;56841;55.964;37.674;2022-08-16T11:24:21;7.15;;;3.38;;
69621;SDS011;56841;55.964;37.674;2022-08-16T11:26:47;4.65;;;3.22;;
69621;SDS011;56841;55.964;37.674;2022-08-16T11:29:15;9.93;;;3.42;;
69621;SDS011;56841;55.964;37.674;2022-08-16T11:31:41;5.65;;;3.65;;
69621;SDS011;56841;55.964;37.674;2022-08-16T11:34:08;5.22;;;3.42;;
69621;SDS011;56841;55.964;37.674;2022-08-16T11:36:34;6.82;;;3.40;;
69621;SDS011;56841;55.964;37.674;2022-08-16T11:39:01;5.32;;;3.67;;
69621;SDS011;56841;55.964;37.674;2022-08-16T11:41:27;8.00;;;3.47;;
69621;SDS011;56841;55.964;37.674;2022-08-16T11:43:58;8.65;;;3.55;;
69621;SDS011;56841;55.964;37.674;2022-08-16T11:46:25;6.00;;;3.40;;
69621;SDS011;56841;55.964;37.674;2022-08-16T11:48:52;11.18;;;3.40;;
69621;SDS011;56841;55.964;37.674;2022-08-16T11:51:20;10.80;;;3.78;;
69621;SDS011;56841;55.964;37.674;2022-08-16T11:53:47;8.60;;;3.63;;
69621;SDS011;56841;55.964;37.674;2022-08-16T11:56:13;5.57;;;3.45;;
69621;SDS011;56841;55.964;37.674;2022-08-16T11:58:39;11.38;;;3.72;;
69621;SDS011;56841;55.964;37.674;2022-08-16T12:01:05;5.32;;;3.20;;
69621;SDS011;56841;55.964;37.674;2022-08-16T12:03:31;6.53;;;3.50;;
69621;SDS011;56841;55.964;37.674;2022-08-16T12:05:58;6.57;;;3.33;;
69621;SDS011;56841;55.964;37.674;2022-08-16T12:08:27;7.82;;;3.17;;
69621;SDS011;56841;55.964;37.674;2022-08-16T12:10:54;6.07;;;3.40;;
69621;SDS011;56841;55.964;37.674;2022-08-16T12:13:20;6.30;;;3.80;;
69621;SDS011;56841;55.964;37.674;2022-08-16T12:15:46;4.10;;;3.40;;
69621;SDS011;56841;55.964;37.674;2022-08-16T12:18:12;6.75;;;3.50;;
69621;SDS011;56841;55.964;37.674;2022-08-16T12:20:39;10.65;;;3.78;;
69621;SDS011;56841;55.964;37.674;2022-08-16T12:23:08;5.78;;;3.38;;
69621;SDS011;56841;55.964;37.674;2022-08-16T12:25:34;5.45;;;3.53;;
69621;SDS011;56841;55.964;37.674;2022-08-16T12:28:03;5.88;;;3.67;;
69621;SDS011;56841;55.964;37.674;2022-08-16T12:30:35;9.20;;;3.75;;
69621;SDS011;56841;55.964;37.674;2022-08-16T12:33:05;12.18;;;4.13;;
69621;SDS011;56841;55.964;37.674;2022-08-16T12:35:33;6.18;;;3.40;;
69621;SDS011;56841;55.964;37.674;2022-08-16T12:38:00;6.90;;;3.38;;
69621;SDS011;56841;55.964;37.674;2022-08-16T12:40:31;7.30;;;3.40;;
69621;SDS011;56841;55.964;37.674;2022-08-16T12:42:59;7.03;;;3.75;;
69621;SDS011;56841;55.964;37.674;2022-08-16T12:45:30;10.80;;;4.10;;
69621;SDS011;56841;55.964;37.674;2022-08-16T12:47:59;7.45;;;3.92;;
69621;SDS011;56841;55.964;37.674;2022-08-16T12:50:44;7.28;;;3.65;;
69621;SDS011;56841;55.964;37.674;2022-08-16T12:53:10;6.80;;;3.55;;
69621;SDS011;56841;55.964;37.674;2022-08-16T12:55:36;10.98;;;3.95;;
69621;SDS011;56841;55.964;37.674;2022-08-16T12:58:03;7.40;;;3.90;;
69621;SDS011;56841;55.964;37.674;2022-08-16T13:00:30;5.90;;;3.55;;
69621;SDS011;56841;55.964;37.674;2022-08-16T13:02:57;9.07;;;3.80;;
69621;SDS011;56841;55.964;37.674;2022-08-16T13:05:24;8.85;;;3.92;;
69621;SDS011;56841;55.964;37.674;2022-08-16T13:07:51;12.52;;;3.97;;
69621;SDS011;56841;55.964;37.674;2022-08-16T13:10:19;10.15;;;4.10;;
69621;SDS011;56841;55.964;37.674;2022-08-16T13:12:47;9.60;;;4.40;;
69621;SDS011;56841;55.964;37.674;2022-08-16T13:15:22;10.35;;;4.03;;
69621;SDS011;56841;55.964;37.674;2022-08-16T13:17:51;14.85;;;4.40;;
69621;SDS011;56841;55.964;37.674;2022-08-16T13:20:19;14.43;;;4.43;;
69621;SDS011;56841;55.964;37.674;2022-08-16T13:22:48;13.20;;;5.03;;
69621;SDS011;56841;55.964;37.674;2022-08-16T13:25:29;10.70;;;4.00;;
69621;SDS011;56841;55.964;37.674;2022-08-16T13:27:57;7.60;;;3.70;;
69621;SDS011;56841;55.964;37.674;2022-08-16T13:30:25;7.78;;;4.18;;
69621;SDS011;56841;55.964;37.674;2022-08-16T13:32:52;7.63;;;3.90;;
69621;SDS011;56841;55.964;37.674;2022-08-16T13:35:19;6.07;;;3.80;;
69621;SDS011;56841;55.964;37.674;2022-08-16T13:37:46;9.18;;;4.03;;
69621;SDS011;56841;55.964;37.674;2022-08-16T13:40:12;7.28;;;3.88;;
69621;SDS011;56841;55.964;37.674;2022-08-16T13:42:38;6.40;;;3.78;;
69621;SDS011;56841;55.964;37.674;2022-08-16T13:45:06;6.93;;;3.92;;
69621;SDS011;56841;55.964;37.674;2022-08-16T13:47:32;7.50;;;4.00;;
69621;SDS011;56841;55.964;37.674;2022-08-16T13:49:58;5.22;;;3.75;;
69621;SDS011;56841;55.964;37.674;2022-08-16T13:52:24;7.10;;;3.85;;
69621;SDS011;56841;55.964;37.674;2022-08-16T13:54:50;6.68;;;3.70;;
69621;SDS011;56841;55.964;37.674;2022-08-16T13:57:16;5.53;;;3.75;;
69621;SDS011;56841;55.964;37.674;2022-08-16T13:59:42;6.55;;;3.63;;
69621;SDS011;56841;55.964;37.674;2022-08-16T14:02:09;6.18;;;4.18;;
69621;SDS011;56841;55.964;37.674;2022-08-16T14:04:36;5.45;;;3.70;;
69621;SDS011;56841;55.964;37.674;2022-08-16T14:07:05;5.55;;;3.60;;
69621;SDS011;56841;55.964;37.674;2022-08-16T14:09:35;6.55;;;3.67;;
69621;SDS011;56841;55.964;37.674;2022-08-16T14:12:02;5.32;;;3.97;;
69621;SDS011;56841;55.964;37.674;2022-08-16T14:14:29;5.50;;;3.85;;
69621;SDS011;56841;55.964;37.674;2022-08-16T14:16:59;9.18;;;4.32;;
69621;SDS011;56841;55.964;37.674;2022-08-16T14:19:27;8.38;;;4.20;;
69621;SDS011;56841;55.964;37.674;2022-08-16T14:21:54;8.80;;;4.22;;
69621;SDS011;56841;55.964;37.674;2022-08-16T14:24:25;8.48;;;4.00;;
69621;SDS011;56841;55.964;37.674;2022-08-16T14:26:51;6.82;;;4.25;;
69621;SDS011;56841;55.964;37.674;2022-08-16T14:29:17;6.57;;;4.47;;
69621;SDS011;56841;55.964;37.674;2022-08-16T14:31:43;8.75;;;5.57;;
69621;SDS011;56841;55.964;37.674;2022-08-16T14:34:09;11.82;;;5.25;;
69621;SDS011;56841;55.964;37.674;2022-08-16T14:36:35;9.00;;;5.05;;
69621;SDS011;56841;55.964;37.674;2022-08-16T14:39:01;12.45;;;5.25;;
69621;SDS011;56841;55.964;37.674;2022-08-16T14:41:28;9.55;;;5.43;;
69621;SDS011;56841;55.964;37.674;2022-08-16T14:43:55;11.48;;;4.45;;
69621;SDS011;56841;55.964;37.674;2022-08-16T14:46:22;8.68;;;4.63;;